Time;durP1;ratioP1;P1;durP2;ratioP2;P2;SDS_P1;SDS_P2;PMS_P1;PMS_P2;Temp;Humidity;BMP_temperature;BMP_pressure;BME280_temperature;BME280_humidity;BME280_pressure;Samples;Min_cycle;Max_cycle;Signal;HPM_P1;HPM_P2
2022/02/04 00:06:39;;;;;;;44.23;19.33;;;;;;;-3.56;63.13;98729.34;5011872;28;20046;-76
2022/02/04 00:25:26;;;;;;;43.47;18.80;;;;;;;-3.46;62.70;98710.22;5012128;28;20502;-77
2022/02/04 00:27:55;;;;;;;44.77;18.60;;;;;;;-3.43;62.71;98719.66;5017459;28;20134;-77
2022/02/04 00:30:27;;;;;;;45.47;19.60;;;;;;;-3.50;62.89;98716.19;5029854;28;20053;-77
2022/02/04 00:32:57;;;;;;;52.67;20.70;;;;;;;-3.53;63.03;98721.94;5031271;28;20073;-77
2022/02/04 00:40:42;;;;;;;54.27;23.10;;;;;;;-3.56;63.07;98724.00;5013838;28;20046;-78
2022/02/04 00:43:12;;;;;;;49.70;23.23;;;;;;;-3.64;63.25;98715.41;5020546;28;20049;-78
2022/02/04 00:45:49;;;;;;;52.23;23.27;;;;;;;-3.64;63.72;98718.06;5012121;28;20057;-78
2022/02/04 00:56:34;;;;;;;55.60;24.45;;;;;;;-3.64;63.15;98723.41;5028222;28;20073;-77
2022/02/04 01:26:23;;;;;;;64.17;25.70;;;;;;;-3.87;63.79;98736.19;5029271;28;20570;-74
2022/02/04 01:28:52;;;;;;;61.85;25.88;;;;;;;-3.92;63.80;98733.28;5025319;28;20506;-74
2022/02/04 01:31:20;;;;;;;56.77;25.57;;;;;;;-3.93;63.89;98733.50;5020997;28;20065;-74
2022/02/04 01:33:48;;;;;;;59.10;26.23;;;;;;;-3.89;63.91;98740.91;5025377;28;20041;-74
2022/02/04 01:36:16;;;;;;;55.00;24.80;;;;;;;-3.83;63.43;98736.56;5032514;28;20073;-74
2022/02/04 01:38:42;;;;;;;61.95;26.15;;;;;;;-3.80;63.37;98736.19;5025279;28;20046;-74
2022/02/04 01:41:09;;;;;;;59.93;26.17;;;;;;;-3.87;63.71;98730.00;5031360;28;20046;-75
2022/02/04 01:43:37;;;;;;;59.03;26.33;;;;;;;-3.83;63.71;98739.25;5011235;28;20049;-74
2022/02/04 01:46:06;;;;;;;65.77;27.53;;;;;;;-3.85;63.57;98741.31;5016095;28;20133;-75
2022/02/04 01:48:33;;;;;;;62.03;26.27;;;;;;;-3.87;63.68;98743.34;5032454;28;20056;-76
2022/02/04 01:51:00;;;;;;;;;;;;;;;-3.87;63.77;98748.69;5024761;28;20041;-75
2022/02/04 01:53:31;;;;;;;54.37;25.50;;;;;;;-3.95;63.83;98749.72;5019625;28;19929;-76
2022/02/04 01:55:59;;;;;;;62.87;25.50;;;;;;;-4.15;63.88;98715.84;5004345;28;20049;-76
2022/02/04 01:58:25;;;;;;;62.37;24.33;;;;;;;-3.99;64.07;98740.50;5000878;28;20128;-76
2022/02/04 02:00:53;;;;;;;63.50;24.67;;;;;;;-3.95;64.04;98738.25;5015116;28;20478;-75
2022/02/04 02:03:20;;;;;;;67.88;25.25;;;;;;;-3.95;64.02;98743.59;5023622;28;20323;-76
2022/02/04 02:05:47;;;;;;;61.17;26.57;;;;;;;-3.96;63.96;98736.59;5028127;28;20153;-76
2022/02/04 02:08:17;;;;;;;66.03;27.67;;;;;;;-4.01;64.06;98751.38;5011552;28;20494;-76
2022/02/04 02:10:44;;;;;;;65.63;28.10;;;;;;;-4.02;63.97;98741.72;5021126;28;20041;-75
2022/02/04 02:38:13;;;;;;;70.87;27.87;;;;;;;-3.91;63.79;98742.13;5018499;28;20489;-75
2022/02/04 02:45:55;;;;;;;68.10;28.60;;;;;;;-3.99;63.59;98743.16;5020331;28;20430;-74
2022/02/04 02:58:35;;;;;;;69.87;29.70;;;;;;;-3.81;63.69;98763.94;5019197;28;20050;-75
2022/02/04 03:03:30;;;;;;;72.33;32.90;;;;;;;-3.87;63.97;98762.06;5015423;28;20141;-75
2022/02/04 03:05:57;;;;;;;83.07;35.07;;;;;;;-4.14;64.03;98738.00;5014928;28;20052;-73
2022/02/04 03:08:23;;;;;;;85.33;35.27;;;;;;;-3.95;64.19;98775.63;5022553;28;20041;-74
2022/02/04 03:10:54;;;;;;;75.03;34.40;;;;;;;-3.92;64.03;98777.91;5029574;28;20049;-74
2022/02/04 03:13:20;;;;;;;75.43;32.97;;;;;;;-3.92;64.04;98778.69;5020835;28;20055;-74
2022/02/04 03:15:48;;;;;;;84.60;33.60;;;;;;;-3.92;64.11;98785.91;5028312;28;20132;-75
2022/02/04 03:18:23;;;;;;;82.57;31.70;;;;;;;-3.88;63.86;98787.97;5020843;28;20153;-74
2022/02/04 03:20:52;;;;;;;74.83;32.20;;;;;;;-3.88;63.99;98787.13;5026406;28;20053;-75
2022/02/04 03:23:20;;;;;;;83.70;30.83;;;;;;;-4.04;64.01;98761.66;5013769;28;20045;-74
2022/02/04 03:25:51;;;;;;;65.13;30.43;;;;;;;-3.94;63.68;98770.06;5024975;28;20076;-74
2022/02/04 03:28:25;;;;;;;70.13;30.00;;;;;;;-3.85;63.79;98787.56;5045203;28;20621;-75
2022/02/04 03:30:53;;;;;;;73.83;30.57;;;;;;;-3.83;63.77;98783.84;5011389;28;20077;-74
2022/02/04 03:33:22;;;;;;;83.83;31.33;;;;;;;-3.88;64.01;98787.97;5027621;28;20052;-74
2022/02/04 03:35:48;;;;;;;73.27;29.90;;;;;;;-3.89;63.85;98786.31;5027327;28;20061;-74
2022/02/04 03:38:15;;;;;;;73.57;31.47;;;;;;;-3.93;63.94;98773.56;5018454;28;20462;-74
2022/02/04 03:40:41;;;;;;;71.70;30.93;;;;;;;-3.87;63.89;98791.44;5018966;28;20100;-73
2022/02/04 03:43:07;;;;;;;77.37;31.80;;;;;;;-3.85;63.76;98790.22;5012645;28;20053;-74
2022/02/04 03:45:35;;;;;;;73.60;30.70;;;;;;;-3.76;63.34;98792.66;5002997;28;20041;-74
2022/02/04 03:48:00;;;;;;;77.47;30.02;;;;;;;-3.68;63.53;98802.31;5014263;28;20060;-74
2022/02/04 03:50:27;;;;;;;72.00;31.13;;;;;;;-3.65;63.40;98794.72;5023548;28;20473;-74
2022/02/04 03:52:53;;;;;;;71.60;30.47;;;;;;;-3.60;63.22;98796.78;5031918;28;20047;-75
2022/02/04 03:55:20;;;;;;;66.40;29.37;;;;;;;-3.71;63.44;98796.38;5026644;28;20042;-79
2022/02/04 03:57:47;;;;;;;73.73;32.53;;;;;;;-3.70;63.40;98798.00;5009413;28;20403;-78
2022/02/04 04:00:16;;;;;;;71.73;31.37;;;;;;;-3.64;63.34;98801.72;5011142;28;20152;-78
2022/02/04 04:02:45;;;;;;;74.37;32.00;;;;;;;-3.61;63.21;98805.84;5042756;28;20041;-78
2022/02/04 04:05:12;;;;;;;75.07;32.50;;;;;;;-3.64;63.11;98796.38;5009516;28;20124;-78
2022/02/04 04:07:44;;;;;;;74.20;33.42;;;;;;;-3.75;63.43;98799.66;5022483;28;20144;-79
2022/02/04 04:10:15;;;;;;;76.10;32.07;;;;;;;-3.77;63.69;98802.56;5023779;28;20073;-79
2022/02/04 04:12:42;;;;;;;73.03;31.93;;;;;;;-3.75;63.42;98799.66;5012423;28;20042;-79
2022/02/04 04:15:10;;;;;;;76.53;32.77;;;;;;;-3.78;63.57;98786.72;5018071;28;20116;-79
2022/02/04 04:17:41;;;;;;;;;;;;;;;-3.72;63.61;98799.28;5013756;28;20442;-78
2022/02/04 04:20:12;;;;;;;71.70;30.87;;;;;;;-3.77;63.67;98788.34;4997555;28;20442;-77
2022/02/04 04:22:39;;;;;;;77.07;30.87;;;;;;;-3.71;63.24;98798.25;5011903;28;20050;-79
2022/02/04 04:25:06;;;;;;;76.53;32.70;;;;;;;-3.71;63.35;98787.56;5014022;28;20481;-80
2022/02/04 04:27:33;;;;;;;81.50;31.77;;;;;;;-3.64;63.48;98795.56;5012270;28;20054;-79
2022/02/04 04:29:59;;;;;;;83.43;32.42;;;;;;;-3.61;63.44;98795.94;5015221;28;20053;-81
2022/02/04 04:32:26;;;;;;;74.57;30.90;;;;;;;-3.60;63.27;98802.13;5007364;28;20529;-80
2022/02/04 04:34:52;;;;;;;76.83;31.23;;;;;;;-3.62;63.19;98796.19;5009877;28;20144;-78
2022/02/04 04:37:21;;;;;;;69.33;30.67;;;;;;;-3.57;63.40;98797.22;5029060;28;20077;-78
2022/02/04 04:40:01;;;;;;;74.30;30.77;;;;;;;-3.51;63.48;98800.06;5028265;28;20057;-78
2022/02/04 04:42:39;;;;;;;70.30;29.23;;;;;;;-3.45;63.17;98802.72;5028064;28;20052;-78
2022/02/04 04:45:38;;;;;;;76.90;31.23;;;;;;;-3.44;63.15;98815.06;5019017;28;20049;-77
2022/02/04 05:29:17;;;;;;;73.13;31.10;;;;;;;-3.48;63.98;98842.41;5024398;28;20054;-79
2022/02/04 05:31:43;;;;;;;76.47;33.57;;;;;;;-3.48;63.84;98843.25;5022843;28;20506;-77
2022/02/04 05:34:10;;;;;;;85.27;33.90;;;;;;;-3.51;63.89;98843.66;5027347;28;20041;-77
2022/02/04 05:36:41;;;;;;;79.53;33.55;;;;;;;-3.54;64.22;98843.25;5012990;28;20767;-78
2022/02/04 05:39:09;;;;;;;82.17;32.80;;;;;;;-3.55;64.12;98853.09;5014799;28;20140;-78
2022/02/04 05:41:39;;;;;;;79.27;34.40;;;;;;;-3.50;64.00;98845.31;5014108;28;20097;-78
2022/02/04 05:44:11;;;;;;;74.57;32.23;;;;;;;-3.45;63.82;98840.16;5029422;28;20045;-77
2022/02/04 05:47:05;;;;;;;85.17;33.37;;;;;;;-3.47;64.05;98841.38;5014584;28;20075;-77
2022/02/04 05:49:26;;;;;;;79.95;33.50;;;;;;;-3.36;63.50;98842.59;5030375;28;20081;-78
2022/02/04 05:52:18;;;;;;;87.80;33.83;;;;;;;-3.50;63.77;98818.59;5021434;28;20184;-77
2022/02/04 05:55:17;;;;;;;77.90;33.33;;;;;;;-3.31;63.52;98848.97;5020473;28;20049;-77
2022/02/04 05:57:55;;;;;;;76.43;32.60;;;;;;;-3.28;63.43;98840.56;5024248;28;20054;-78
2022/02/04 06:00:41;;;;;;;82.67;33.10;;;;;;;-3.31;63.39;98848.19;4979752;28;20056;-77
2022/02/04 06:14:27;;;;;;;79.60;31.33;;;;;;;-3.17;62.88;98827.56;5025360;28;20049;-78
2022/02/04 06:22:24;;;;;;;74.10;32.23;;;;;;;-3.00;62.66;98849.34;5014214;28;20559;-79
2022/02/04 06:24:52;;;;;;;77.50;32.60;;;;;;;-2.90;62.63;98846.25;5017238;28;20075;-78
2022/02/04 06:27:20;;;;;;;;;;;;;;;-2.82;62.50;98856.69;5031002;28;20122;-78
2022/02/04 06:29:46;;;;;;;73.53;31.60;;;;;;;-2.74;62.51;98855.66;5024238;28;20386;-77
2022/02/04 06:32:16;;;;;;;72.30;31.03;;;;;;;-2.64;62.40;98853.34;5009886;28;20038;-77
2022/02/04 06:34:42;;;;;;;80.20;33.17;;;;;;;-2.51;62.28;98844.44;5014371;28;20056;-77
2022/02/04 06:37:09;;;;;;;77.50;33.27;;;;;;;-2.41;62.10;98838.66;5029206;28;20042;-77
2022/02/04 06:39:35;;;;;;;73.60;34.13;;;;;;;-2.32;61.82;98841.91;5026327;28;20068;-77
2022/02/04 06:42:01;;;;;;;87.53;34.00;;;;;;;-2.21;61.52;98837.72;5027318;28;20099;-78
2022/02/04 06:44:28;;;;;;;73.37;32.30;;;;;;;-2.16;61.54;98844.09;5022521;28;20088;-76
2022/02/04 06:46:54;;;;;;;64.47;29.20;;;;;;;-2.20;61.71;98839.38;5024882;28;20056;-76
2022/02/04 06:49:21;;;;;;;67.63;29.70;;;;;;;-2.19;61.88;98841.00;5027812;28;20050;-77
2022/02/04 06:51:48;;;;;;;70.18;29.55;;;;;;;-2.12;61.51;98846.34;5024221;28;20046;-77
2022/02/04 06:54:14;;;;;;;69.77;30.50;;;;;;;-2.08;61.46;98844.84;5018101;28;20042;-77
2022/02/04 06:56:40;;;;;;;67.90;28.87;;;;;;;-2.06;61.34;98845.47;5024426;28;20160;-77
2022/02/04 06:59:07;;;;;;;63.97;28.70;;;;;;;-2.17;61.48;98833.56;5023786;28;20127;-76
2022/02/04 07:01:34;;;;;;;69.63;30.43;;;;;;;-2.09;61.52;98856.59;5020317;28;20046;-77
2022/02/04 07:04:04;;;;;;;63.40;30.13;;;;;;;-2.10;61.43;98839.72;5026262;28;20314;-76
2022/02/04 07:06:35;;;;;;;75.20;32.60;;;;;;;-2.07;61.53;98851.84;5046379;28;20413;-76
2022/02/04 07:10:10;;;;;;;80.30;31.40;;;;;;;-2.07;61.58;98854.53;5019898;28;20049;-76
2022/02/04 07:17:21;;;;;;;81.10;32.73;;;;;;;-1.96;61.12;98861.06;5019583;28;20046;-75
2022/02/04 07:19:48;;;;;;;73.25;31.63;;;;;;;-1.96;61.03;98861.06;5008081;28;20057;-74
2022/02/04 07:22:17;;;;;;;72.70;32.30;;;;;;;-2.14;61.13;98836.66;5029520;28;20041;-75
2022/02/04 07:24:43;;;;;;;75.00;32.80;;;;;;;-1.91;61.06;98867.41;5026185;28;20045;-75
2022/02/04 07:27:09;;;;;;;80.23;32.97;;;;;;;-1.81;60.80;98866.94;4996196;28;20046;-75
2022/02/04 07:29:36;;;;;;;86.77;31.67;;;;;;;-1.73;60.82;98871.22;5020184;28;20514;-70
2022/02/04 07:32:07;;;;;;;74.77;33.73;;;;;;;-1.66;60.43;98872.00;5023715;28;20067;-68
2022/02/04 07:42:34;;;;;;;74.63;29.47;;;;;;;-1.61;60.51;98879.41;5021469;28;20587;-69
2022/02/04 07:45:00;;;;;;;63.43;29.97;;;;;;;-1.55;60.29;98880.41;5015352;28;20514;-71
2022/02/04 07:47:26;;;;;;;66.00;29.37;;;;;;;-1.47;60.27;98880.94;5018356;28;20502;-71
2022/02/04 07:49:52;;;;;;;66.20;28.80;;;;;;;-1.45;60.09;98878.88;5019947;28;20041;-69
2022/02/04 07:52:18;;;;;;;61.43;29.27;;;;;;;-1.39;59.96;98882.53;5025048;28;20084;-75
2022/02/04 07:54:45;;;;;;;57.97;28.70;;;;;;;-1.34;60.02;98882.69;4989983;28;20056;-72
2022/02/04 07:57:14;;;;;;;63.27;28.03;;;;;;;-1.30;59.90;98883.88;5019845;28;20056;-75
2022/02/04 07:59:41;;;;;;;;;;;;;;;-1.19;59.74;98876.97;5019040;28;20140;-73
2022/02/04 08:02:08;;;;;;;67.18;26.48;;;;;;;-1.15;59.66;98883.56;5022882;28;19929;-70
2022/02/04 08:04:36;;;;;;;67.20;26.70;;;;;;;-1.12;59.88;98887.66;5006592;28;20052;-70
2022/02/04 08:07:08;;;;;;;59.03;27.23;;;;;;;-0.93;59.46;98885.03;5016983;28;20073;-70
2022/02/04 08:29:31;;;;;;;53.05;23.85;;;;;;;-0.32;57.95;98877.09;5014668;28;20444;-73
2022/02/04 08:55:45;;;;;;;46.95;22.15;;;;;;;0.89;55.55;98879.91;5019602;28;20053;-73
2022/02/04 09:03:48;;;;;;;48.67;20.75;;;;;;;1.18;54.66;98883.50;5025006;28;20443;-72
2022/02/04 09:06:17;;;;;;;48.03;22.27;;;;;;;1.32;54.56;98886.75;5014131;28;20084;-73
2022/02/04 09:08:47;;;;;;;50.97;21.55;;;;;;;1.51;54.47;98882.06;5019789;28;20625;-73
2022/02/04 09:11:25;;;;;;;48.42;20.83;;;;;;;1.65;54.37;98873.69;5025652;28;20076;-72
2022/02/04 09:19:24;;;;;;;45.13;21.83;;;;;;;2.33;52.94;98873.88;5026128;28;20053;-70
2022/02/04 09:24:24;;;;;;;43.53;20.83;;;;;;;2.38;52.59;98868.59;5012716;28;20132;-73
2022/02/04 09:26:52;;;;;;;45.20;22.00;;;;;;;2.45;52.08;98873.00;5016571;28;20049;-73
2022/02/04 09:29:18;;;;;;;45.38;22.15;;;;;;;2.58;52.18;98861.09;5025075;28;20053;-72
2022/02/04 09:31:46;;;;;;;41.50;21.02;;;;;;;2.83;51.50;98864.19;5027290;28;20643;-72
2022/02/04 09:34:12;;;;;;;44.28;19.48;;;;;;;2.92;50.87;98861.88;5017084;28;20085;-72
2022/02/04 09:36:39;;;;;;;36.80;17.55;;;;;;;3.00;50.31;98857.94;5015513;28;20065;-73
2022/02/04 09:39:06;;;;;;;38.03;16.70;;;;;;;3.08;50.00;98871.03;5028935;28;20049;-73
2022/02/04 09:41:33;;;;;;;30.38;14.75;;;;;;;3.30;49.24;98861.34;5019201;28;20042;-72
2022/02/04 09:44:00;;;;;;;28.70;14.10;;;;;;;3.50;48.78;98853.47;5016838;28;20053;-72
2022/02/04 09:46:29;;;;;;;31.85;14.15;;;;;;;3.91;48.33;98857.75;5022375;28;20732;-71
2022/02/04 09:48:58;;;;;;;28.73;13.20;;;;;;;4.22;47.75;98864.28;5024728;28;20045;-73
2022/02/04 09:51:35;;;;;;;31.23;13.95;;;;;;;4.74;46.85;98867.41;5029483;28;20103;-72
2022/02/04 10:04:34;;;;;;;29.83;14.07;;;;;;;5.89;44.84;98868.84;5026290;28;20064;-73
2022/02/04 10:22:04;;;;;;;31.77;15.85;;;;;;;8.54;39.43;98853.63;5024028;28;20057;-73
2022/02/04 10:24:33;;;;;;;32.83;15.48;;;;;;;8.92;39.01;98853.88;4995150;28;20046;-71
2022/02/04 10:27:16;;;;;;;30.90;14.18;;;;;;;9.20;38.18;98850.59;5021472;28;20042;-72
2022/02/04 10:29:44;;;;;;;26.88;13.35;;;;;;;9.78;36.79;98860.56;5015099;28;20144;-73
2022/02/04 10:32:10;;;;;;;27.08;13.82;;;;;;;9.87;36.81;98858.00;5018773;28;20104;-73
2022/02/04 10:34:39;;;;;;;26.52;13.90;;;;;;;10.23;36.61;98867.63;5032232;28;20045;-73
2022/02/04 10:37:25;;;;;;;27.70;13.75;;;;;;;10.62;36.10;98863.81;5010615;28;20131;-73
2022/02/04 11:03:58;;;;;;;31.60;15.52;;;;;;;13.05;30.87;98865.38;5028845;28;20053;-71
2022/02/04 11:09:14;;;;;;;28.63;14.97;;;;;;;12.95;30.58;98863.72;5024835;28;20111;-72
2022/02/04 11:43:32;;;;;;;32.45;16.88;;;;;;;12.15;31.14;98839.56;5029041;28;20456;-69
2022/02/04 11:54:40;;;;;;;24.17;13.40;;;;;;;11.38;31.57;98837.28;5011716;28;20060;-69
2022/02/04 11:57:22;;;;;;;33.10;13.23;;;;;;;11.27;31.10;98844.09;5029454;28;20129;-70
2022/02/04 11:59:53;;;;;;;26.67;12.63;;;;;;;11.81;30.87;98838.91;5042464;28;20111;-70
2022/02/04 12:02:30;;;;;;;27.30;12.20;;;;;;;12.08;30.14;98847.41;5030230;28;20049;-70
2022/02/04 12:05:33;;;;;;;24.25;12.52;;;;;;;12.00;30.32;98852.44;5046767;28;20498;-69
2022/02/04 12:08:32;;;;;;;24.20;11.60;;;;;;;12.44;29.86;98857.53;5024536;28;20114;-69
2022/02/04 12:11:02;;;;;;;22.83;10.98;;;;;;;11.94;30.58;98850.97;5016848;28;20560;-70
2022/02/04 12:13:29;;;;;;;23.13;11.25;;;;;;;11.94;30.78;98863.81;5014627;28;20064;-71
2022/02/04 12:16:04;;;;;;;26.98;11.57;;;;;;;11.72;30.63;98858.00;5025588;28;20465;-70
2022/02/04 12:19:05;;;;;;;25.80;10.88;;;;;;;11.46;31.05;98861.22;5035056;28;20149;-71
2022/02/04 12:21:44;;;;;;;24.08;11.80;;;;;;;11.04;31.45;98868.56;5019882;28;20053;-71
2022/02/04 12:24:32;;;;;;;30.08;12.48;;;;;;;10.66;31.58;98876.88;5016551;28;20049;-70
2022/02/04 12:27:30;;;;;;;26.38;11.75;;;;;;;10.18;32.44;98865.78;5011501;28;20562;-72
2022/02/04 12:29:57;;;;;;;27.52;12.05;;;;;;;9.72;33.09;98872.69;5023269;28;20057;-72
2022/02/04 12:32:25;;;;;;;24.42;11.00;;;;;;;9.18;33.33;98871.91;5009974;28;20041;-70
2022/02/04 12:34:51;;;;;;;24.58;10.75;;;;;;;9.21;33.31;98872.16;5030071;28;20112;-71
2022/02/04 12:37:20;;;;;;;29.27;11.40;;;;;;;9.22;33.18;98873.78;5029313;28;20041;-71
2022/02/04 12:39:46;;;;;;;27.35;11.27;;;;;;;9.27;32.99;98880.28;5016267;28;20052;-70
2022/02/04 12:42:18;;;;;;;23.38;11.15;;;;;;;8.90;33.37;98879.78;5007404;28;20064;-68
2022/02/04 12:44:45;;;;;;;23.20;10.93;;;;;;;8.33;34.06;98878.28;5033314;28;20458;-71
2022/02/04 12:47:14;;;;;;;24.17;10.95;;;;;;;7.94;34.69;98873.59;5030464;28;20115;-70
2022/02/04 12:49:51;;;;;;;26.77;11.48;;;;;;;7.64;35.03;98875.34;5022201;28;20053;-70
2022/02/04 12:52:29;;;;;;;23.27;10.82;;;;;;;7.26;35.44;98878.47;5026168;28;20481;-70
2022/02/04 12:55:09;;;;;;;28.88;11.90;;;;;;;7.08;35.57;98874.44;4997560;28;20054;-72
2022/02/04 12:57:40;;;;;;;27.70;11.52;;;;;;;6.86;35.94;98853.78;5032732;28;20129;-69
2022/02/04 13:10:35;;;;;;;28.92;12.13;;;;;;;5.96;37.35;98896.56;5021530;28;20502;-73
2022/02/04 13:13:03;;;;;;;26.52;12.52;;;;;;;6.09;36.98;98892.56;5015301;28;20064;-70
2022/02/04 13:15:31;;;;;;;;;;;;;;;6.21;37.09;98889.59;5027627;28;20083;-70
2022/02/04 13:17:58;;;;;;;29.15;11.77;;;;;;;6.53;36.56;98892.09;5032110;28;19940;-70
2022/02/04 13:20:27;;;;;;;24.42;11.13;;;;;;;6.59;36.59;98903.78;5043018;28;20041;-71
2022/02/04 13:22:55;;;;;;;28.52;10.32;;;;;;;6.65;36.58;98891.84;5020247;28;20054;-71
2022/02/04 13:25:24;;;;;;;25.05;10.70;;;;;;;6.63;36.82;98901.31;5032956;28;20509;-72
2022/02/04 13:28:08;;;;;;;25.38;11.85;;;;;;;6.26;37.07;98902.38;5020531;28;20080;-72
2022/02/04 13:30:38;;;;;;;32.85;11.43;;;;;;;5.89;37.61;98898.69;5018862;28;20506;-70
2022/02/04 13:33:15;;;;;;;24.35;11.13;;;;;;;5.50;37.93;98892.59;5022376;28;20049;-72
2022/02/04 13:35:52;;;;;;;21.08;9.73;;;;;;;5.17;38.34;98888.31;5028898;28;20049;-69
2022/02/04 13:38:29;;;;;;;23.25;9.93;;;;;;;5.01;38.63;98898.25;5023665;28;20164;-70
2022/02/04 13:41:07;;;;;;;22.85;9.65;;;;;;;4.86;38.86;98899.75;5029257;28;20056;-70
2022/02/04 13:46:16;;;;;;;24.25;10.73;;;;;;;4.50;39.39;98902.16;5017572;28;20052;-72
2022/02/04 13:49:00;;;;;;;21.00;9.15;;;;;;;4.43;39.74;98912.38;5030355;28;20252;-72
2022/02/04 13:51:43;;;;;;;22.73;9.63;;;;;;;4.15;40.20;98916.97;5027789;28;20426;-72
2022/02/04 13:54:56;;;;;;;24.63;10.52;;;;;;;3.97;40.54;98922.44;5016840;28;20057;-70
2022/02/04 13:57:24;;;;;;;21.58;9.52;;;;;;;3.71;40.86;98918.59;5014152;28;20057;-72
2022/02/04 14:00:13;;;;;;;20.27;9.05;;;;;;;3.87;40.64;98925.03;5013964;28;20088;-70
2022/02/04 14:02:52;;;;;;;20.33;8.60;;;;;;;3.62;40.72;98926.34;5025169;28;20060;-69
2022/02/04 14:05:26;;;;;;;19.27;8.82;;;;;;;3.53;40.90;98927.84;5024356;28;20441;-72
2022/02/04 14:08:04;;;;;;;20.73;9.20;;;;;;;3.41;41.06;98933.34;5027125;28;20077;-68
2022/02/04 14:10:34;;;;;;;;;;;;;;;3.24;41.50;98925.28;5012664;28;20064;-69
2022/02/04 14:13:03;;;;;;;20.73;8.73;;;;;;;3.21;41.48;98937.41;5032460;28;20036;-69
2022/02/04 14:15:30;;;;;;;19.17;8.13;;;;;;;3.10;41.72;98943.69;5022765;28;20049;-69
2022/02/04 14:17:57;;;;;;;;;;;;;;;3.01;41.74;98945.19;5026210;28;20046;-69
2022/02/04 14:20:24;;;;;;;19.27;8.33;;;;;;;2.83;42.12;98936.28;5026021;28;19972;-70
2022/02/04 14:22:50;;;;;;;21.08;8.65;;;;;;;2.80;42.28;98939.44;5028483;28;20050;-70
2022/02/04 14:25:20;;;;;;;26.02;10.38;;;;;;;2.82;42.48;98945.44;5026309;28;20037;-70
2022/02/04 14:27:51;;;;;;;60.25;29.90;;;;;;;2.77;42.52;98948.88;5030326;28;20045;-71
2022/02/04 14:30:22;;;;;;;68.10;33.33;;;;;;;2.66;42.60;98947.88;5041175;28;20545;-71
2022/02/04 14:32:56;;;;;;;51.35;23.45;;;;;;;2.67;42.65;98948.69;5022207;28;21129;-71
2022/02/04 14:35:35;;;;;;;31.75;14.90;;;;;;;2.46;42.81;98956.44;5024862;28;20046;-71
2022/02/04 14:54:32;;;;;;;20.20;7.85;;;;;;;2.04;44.69;98957.53;5025631;28;20061;-73
2022/02/04 15:05:38;;;;;;;24.55;9.57;;;;;;;1.91;45.11;98941.63;5005306;28;20597;-74
2022/02/04 15:08:10;;;;;;;27.63;10.40;;;;;;;1.86;45.35;98941.50;5023662;28;20099;-76
2022/02/04 15:10:39;;;;;;;24.25;11.00;;;;;;;1.92;45.49;98952.16;5033659;28;20049;-76
2022/02/04 15:13:11;;;;;;;24.55;12.20;;;;;;;1.79;46.01;98950.53;4995894;28;20089;-73
2022/02/04 15:15:38;;;;;;;24.38;11.60;;;;;;;1.72;45.80;98949.03;5026863;28;20049;-75
2022/02/04 15:18:05;;;;;;;25.77;11.57;;;;;;;1.73;46.17;98953.38;5015957;28;20524;-74
2022/02/04 15:20:31;;;;;;;27.35;11.90;;;;;;;1.72;46.29;98952.56;5018035;28;20046;-74
2022/02/04 15:22:59;;;;;;;28.20;11.57;;;;;;;1.66;46.08;98940.03;5024765;28;20378;-75
2022/02/04 15:25:25;;;;;;;26.52;11.32;;;;;;;1.66;46.53;98958.88;5030660;28;20076;-75
2022/02/04 15:28:04;;;;;;;26.35;11.30;;;;;;;1.67;46.47;98958.66;5017152;28;20046;-74
2022/02/04 15:30:35;;;;;;;25.75;10.82;;;;;;;1.62;46.46;98958.53;4989987;28;20092;-74
2022/02/04 15:33:03;;;;;;;27.10;11.73;;;;;;;1.60;46.57;98962.53;5027070;28;20573;-73
2022/02/04 15:35:31;;;;;;;;;;;;;;;1.51;46.79;98952.09;5019669;28;20042;-74
2022/02/04 15:37:57;;;;;;;24.08;10.43;;;;;;;1.46;46.58;98948.47;5024525;28;20370;-74
2022/02/04 15:40:23;;;;;;;28.00;11.23;;;;;;;1.35;46.87;98956.34;5020865;28;20051;-74
2022/02/04 15:42:56;;;;;;;24.52;10.98;;;;;;;1.35;46.92;98955.50;5028348;28;20050;-75
2022/02/04 15:48:36;;;;;;;24.10;10.65;;;;;;;1.31;46.76;98957.03;5015041;28;20057;-74
2022/02/04 15:51:12;;;;;;;28.30;11.40;;;;;;;1.24;47.01;98959.84;5017905;28;20078;-75
2022/02/04 15:54:01;;;;;;;24.65;10.45;;;;;;;1.28;46.83;98961.03;5016845;28;20049;-74
2022/02/04 16:04:28;;;;;;;22.63;9.63;;;;;;;1.26;46.65;98966.66;5031119;28;20054;-73
2022/02/04 16:06:55;;;;;;;28.65;9.95;;;;;;;1.18;46.91;98972.38;5014616;28;20049;-72
2022/02/04 16:09:23;;;;;;;21.25;9.15;;;;;;;1.13;47.00;98967.69;5019535;28;20052;-72
2022/02/04 16:14:22;;;;;;;29.65;10.07;;;;;;;1.16;46.73;98973.66;5025537;28;20144;-73
2022/02/04 16:17:00;;;;;;;25.35;9.60;;;;;;;1.08;47.09;98977.50;5024234;28;20668;-73
2022/02/04 16:19:29;;;;;;;24.33;9.70;;;;;;;1.03;47.21;98977.41;5030655;28;20046;-73
2022/02/04 16:29:55;;;;;;;24.63;9.82;;;;;;;0.97;47.70;98981.84;5027633;28;20052;-71
2022/02/04 16:32:27;;;;;;;24.35;9.05;;;;;;;0.98;47.66;98970.84;5013555;28;20402;-72
2022/02/04 16:35:03;;;;;;;25.73;9.57;;;;;;;0.95;47.67;98974.00;5025906;28;20506;-72
2022/02/04 16:37:36;;;;;;;23.92;9.32;;;;;;;0.90;48.04;98978.44;5022865;28;20046;-72
2022/02/04 16:40:09;;;;;;;26.23;9.45;;;;;;;0.81;48.07;98973.38;5025815;28;20096;-69
2022/02/04 16:42:37;;;;;;;30.67;9.90;;;;;;;0.86;48.13;98975.38;5011434;28;20054;-70
2022/02/04 16:45:04;;;;;;;24.30;9.60;;;;;;;0.85;47.98;98977.25;5022809;28;20058;-70
2022/02/04 16:47:30;;;;;;;26.02;10.23;;;;;;;0.63;48.14;98947.38;5016846;28;20375;-71
2022/02/04 16:50:01;;;;;;;22.42;9.50;;;;;;;0.80;48.17;98979.00;5009166;28;20062;-70
2022/02/04 16:52:28;;;;;;;24.33;9.32;;;;;;;0.78;48.18;98970.31;5014227;28;20033;-71
2022/02/04 16:54:54;;;;;;;21.38;9.07;;;;;;;0.78;48.17;98984.59;5030861;28;20092;-74
2022/02/04 16:57:24;;;;;;;23.70;10.18;;;;;;;0.75;48.13;98987.75;5025528;28;20042;-71
2022/02/04 16:59:51;;;;;;;25.10;10.60;;;;;;;0.63;48.31;98984.22;5026454;28;20054;-73
2022/02/04 17:02:22;;;;;;;27.85;11.05;;;;;;;0.77;48.02;98998.28;5000873;28;20072;-72
2022/02/04 17:04:49;;;;;;;27.05;11.27;;;;;;;0.74;47.96;98986.13;5016934;28;20050;-78
2022/02/04 17:07:21;;;;;;;33.22;12.55;;;;;;;0.76;47.93;98992.09;5024111;28;20049;-74
2022/02/04 17:09:49;;;;;;;28.20;11.38;;;;;;;0.65;48.13;98992.88;5018237;28;20089;-75
2022/02/04 17:12:26;;;;;;;26.75;10.85;;;;;;;0.68;47.97;99005.88;5025824;28;20048;-77
2022/02/04 17:14:53;;;;;;;19.83;9.82;;;;;;;0.63;47.92;99003.06;5026992;28;20046;-75
2022/02/04 17:17:24;;;;;;;22.07;9.17;;;;;;;0.44;47.97;98992.34;5020053;28;20593;-75
2022/02/04 17:20:02;;;;;;;20.80;9.75;;;;;;;0.60;47.58;99007.00;5029368;28;20075;-75
2022/02/04 17:22:33;;;;;;;20.17;9.55;;;;;;;0.41;47.95;99001.69;5043203;28;20049;-77
2022/02/04 17:24:59;;;;;;;21.25;10.35;;;;;;;0.35;48.13;99013.34;5023057;28;20518;-75
2022/02/04 17:27:25;;;;;;;24.23;10.73;;;;;;;0.30;48.10;99009.69;5025417;28;20041;-74
2022/02/04 17:29:54;;;;;;;22.55;10.27;;;;;;;0.27;48.18;99005.59;5030129;28;20053;-75
2022/02/04 17:32:21;;;;;;;25.17;10.48;;;;;;;0.09;48.45;98972.31;5016812;28;20056;-77
2022/02/04 17:34:47;;;;;;;23.97;10.67;;;;;;;0.23;48.41;99007.09;5018737;28;20140;-77
2022/02/04 17:37:13;;;;;;;24.23;10.38;;;;;;;0.06;48.58;99004.19;5013273;28;20501;-76
2022/02/04 17:39:42;;;;;;;21.10;9.65;;;;;;;0.16;48.46;99017.94;5018796;28;20042;-76
2022/02/04 17:42:09;;;;;;;22.00;10.32;;;;;;;0.05;48.54;99011.44;5006286;28;20197;-76
2022/02/04 17:44:36;;;;;;;23.02;10.48;;;;;;;0.09;48.38;99020.69;5018979;28;20045;-76
2022/02/04 17:47:05;;;;;;;21.98;10.82;;;;;;;-0.05;48.64;99019.22;5002285;28;20103;-76
2022/02/04 17:49:43;;;;;;;21.80;9.65;;;;;;;-0.05;48.59;99020.03;5012555;28;20421;-77
2022/02/04 17:52:26;;;;;;;25.98;10.23;;;;;;;-0.06;48.49;99014.88;5018178;28;20305;-75
2022/02/04 17:55:08;;;;;;;22.17;9.98;;;;;;;-0.02;48.44;99024.97;5002958;28;20042;-76
2022/02/04 17:57:43;;;;;;;27.95;10.25;;;;;;;-0.09;48.76;99021.50;5021818;28;20049;-75
2022/02/04 18:03:24;;;;;;;35.55;12.85;;;;;;;-0.23;48.91;99028.91;5025220;28;20069;-75
2022/02/04 18:08:46;;;;;;;30.55;11.52;;;;;;;-0.31;49.01;99026.53;4995439;28;20114;-76
2022/02/04 18:11:14;;;;;;;28.65;11.88;;;;;;;-0.31;49.13;99021.16;5023117;28;20541;-76
2022/02/04 18:13:41;;;;;;;25.80;11.85;;;;;;;-0.36;49.08;99016.44;5030331;28;20506;-77